Details From EBBR - Brussels Airport
To EKCH - Kastrup
Flight Number -
Tags Generated
Created
Modified
Stats Distance 408 nm / 755 km
Max Altitude 0 ft / 0 m
Waypoints 3
Social Downloads 1
Likes 0
Share VATSIM

Download

Looking for another format? Having issues loading an existing format? Contact us
Advertisement - Login to hide

Notes

Generated

Route

EBBR CH444 EKCH

ID Type Via Altitude Latitude Longitude Leg Dist Tot Dist Heading (true) Name
O EBBR APT - 0 ft / 0 m 50.88681˚ 4.49135˚ - 0 nm - -
CH444 FIX - 0 ft / 0 m 55.37824˚ 12.12512˚ 384 nm 384 nm 43° / 49° -
O EKCH APT - 0 ft / 0 m 55.62761˚ 12.62973˚ 22 nm 407 nm 49° / 49° -

Altitude Profile

Advertisement - Login to hide

Weather


0- 5 10 15 20 25 30 35+ Temperature / ° C

Clouds and Precipitation
Forecast for 2018-05-22 18:00 UTC. Updated 3 hours ago

Ground ~20,000 ft ~40,000 ft Winds

EBBR

Details ICAO EBBR (BRU)
Name Brussels Airport
Region Belgium
Timezone Europe/Brussels (UTC+2.0)
Stats Elevation 184 ft / 56 m (AMSL)
Location 50.899948° 4.492814°
Runways 3
Magnetic Variation 1.183° E

METAR

EBBR 221950Z VRB01KT CAVOK 15/13 Q1015 NOSIG

Decode

TAF

TAF EBBR 221700Z 2218/2324 33005KT 8000 FEW045TCU PROB40 TEMPO 2218/2222 VRB18G30KT 4000 SHRA TSRA PROB30 TEMPO 2302/2305 4000 BR MIFG PROB40 TEMPO 2305/2310 4500 SHRA RA

Decode

Departure Runways

ID Width Length Bearing (true) Bearing (mag) Surface Threshold Offset Overrun Length
02 164 ft / 50 m 9,896 ft / 3,016 m 14.41° 13.23° Asphalt 249 ft / 76 m 0 ft / 0 m
07L 148 ft / 45 m 12,106 ft / 3,690 m 65.16° 63.98° Asphalt 801 ft / 244 m 0 ft / 0 m
07R 148 ft / 45 m 10,703 ft / 3,262 m 69.90° 68.72° Asphalt 499 ft / 152 m 0 ft / 0 m
20 164 ft / 50 m 9,896 ft / 3,016 m 194.42° 193.24° Asphalt 751 ft / 229 m 0 ft / 0 m
25L 148 ft / 45 m 10,703 ft / 3,262 m 249.93° 248.75° Asphalt 499 ft / 152 m 0 ft / 0 m
25R 148 ft / 45 m 12,106 ft / 3,690 m 245.20° 244.02° Asphalt 801 ft / 244 m 0 ft / 0 m

EKCH

Details ICAO EKCH (CPH)
Name Kastrup
Region Denmark / Faroe Islands
Timezone Europe/Copenhagen (UTC+2.0)
Stats Elevation 17 ft / 5 m (AMSL)
Location 55.612915° 12.640961°
Runways 3
Magnetic Variation 3.788° E

METAR

EKCH 222020Z 22004KT CAVOK 12/10 Q1019 NOSIG

Decode

TAF

TAF EKCH 221101Z 2212/2312 07008KT CAVOK= TAF EKBI 221059Z 2212/2312 09008KT CAVOK

Decode

Destination Runways

ID Width Length Bearing (true) Bearing (mag) Surface Threshold Offset Overrun Length
04L 148 ft / 45 m 11,848 ft / 3,611 m 41.15° 37.36° Asphalt 0 ft / 0 m 0 ft / 0 m
04R 148 ft / 45 m 10,814 ft / 3,296 m 41.15° 37.36° Asphalt 0 ft / 0 m 0 ft / 0 m
12 148 ft / 45 m 10,047 ft / 3,063 m 123.21° 119.42° Asphalt 2,313 ft / 705 m 0 ft / 0 m
22L 148 ft / 45 m 10,814 ft / 3,296 m 221.17° 217.38° Asphalt 0 ft / 0 m 0 ft / 0 m
22R 148 ft / 45 m 11,848 ft / 3,611 m 221.18° 217.39° Asphalt 2,018 ft / 615 m 0 ft / 0 m
30 148 ft / 45 m 10,047 ft / 3,063 m 303.25° 299.46° Asphalt 886 ft / 270 m 0 ft / 0 m

Approach Navaids

Runway Type Ident Frequency Range Bearing (true) Bearing (mag) Slope Elevation
04L Localiser CH 110.50 MHz 18 nm / 33 km 41.16° 37.37° - 17 ft / 5 m (AMSL)
04L Glidescope CH 110.50 MHz 10 nm / 19 km 41.16° 37.37° 3.00° 17 ft / 5 m (AMSL)
04L DME CH 110.50 MHz 18 nm / 33 km - - - 14 ft / 4 m (AMSL)
04R Localiser NE 109.30 MHz 18 nm / 33 km 41.18° 37.39° - 17 ft / 5 m (AMSL)
04R Glidescope NE 109.30 MHz 10 nm / 19 km 41.16° 37.37° 3.00° 17 ft / 5 m (AMSL)
12 Localiser KA 109.90 MHz 18 nm / 33 km 123.25° 119.46° - 17 ft / 5 m (AMSL)
12 Glidescope KA 109.90 MHz 10 nm / 19 km 123.23° 119.44° 3.00° 17 ft / 5 m (AMSL)
12 DME KA 109.90 MHz 18 nm / 33 km - - - 14 ft / 4 m (AMSL)
22L Localiser OXS 109.50 MHz 18 nm / 33 km 221.14° 217.35° - 17 ft / 5 m (AMSL)
22L Glidescope OXS 109.50 MHz 10 nm / 19 km 221.16° 217.37° 3.00° 17 ft / 5 m (AMSL)
22L DME OXS 109.50 MHz 18 nm / 33 km - - - 7 ft / 2 m (AMSL)
22R Localiser KLK 110.90 MHz 18 nm / 33 km 221.14° 217.36° - 17 ft / 5 m (AMSL)
22R Glidescope KLK 110.90 MHz 10 nm / 19 km 221.16° 217.37° 3.00° 17 ft / 5 m (AMSL)
22R DME KLK 110.90 MHz 18 nm / 33 km - - - 14 ft / 4 m (AMSL)
30 Localiser OY 108.90 MHz 18 nm / 33 km 303.23° 299.44° - 17 ft / 5 m (AMSL)
30 Glidescope OY 108.90 MHz 10 nm / 19 km 303.23° 299.44° 3.00° 17 ft / 5 m (AMSL)
30 DME OY 108.90 MHz 18 nm / 33 km - - - 9 ft / 3 m (AMSL)

Popular Alternatives